sensor_id;sensor_type;location;lat;lon;timestamp;temperature;humidity
59973;DHT22;55298;-36.624;-64.282;2023-04-08T00:01:46;22.70;82.70
59973;DHT22;55298;-36.624;-64.282;2023-04-08T00:04:14;22.70;83.20
59973;DHT22;55298;-36.624;-64.282;2023-04-08T00:06:43;22.70;83.60
59973;DHT22;55298;-36.624;-64.282;2023-04-08T00:09:11;22.70;84.10
59973;DHT22;55298;-36.624;-64.282;2023-04-08T00:11:40;22.70;83.80
59973;DHT22;55298;-36.624;-64.282;2023-04-08T00:14:08;22.60;84.20
59973;DHT22;55298;-36.624;-64.282;2023-04-08T00:16:36;22.60;84.00
59973;DHT22;55298;-36.624;-64.282;2023-04-08T00:19:04;22.60;84.40
59973;DHT22;55298;-36.624;-64.282;2023-04-08T00:21:32;22.60;85.20
59973;DHT22;55298;-36.624;-64.282;2023-04-08T00:24:00;22.50;85.50
59973;DHT22;55298;-36.624;-64.282;2023-04-08T00:26:29;22.50;86.00
59973;DHT22;55298;-36.624;-64.282;2023-04-08T00:29:06;22.50;85.30
59973;DHT22;55298;-36.624;-64.282;2023-04-08T00:31:34;22.40;85.50
59973;DHT22;55298;-36.624;-64.282;2023-04-08T00:34:02;22.40;85.40
59973;DHT22;55298;-36.624;-64.282;2023-04-08T00:36:30;22.40;85.80
59973;DHT22;55298;-36.624;-64.282;2023-04-08T00:38:58;22.30;86.80
59973;DHT22;55298;-36.624;-64.282;2023-04-08T00:41:26;22.30;86.90
59973;DHT22;55298;-36.624;-64.282;2023-04-08T00:43:54;22.20;87.80
59973;DHT22;55298;-36.624;-64.282;2023-04-08T00:46:22;22.20;87.50
59973;DHT22;55298;-36.624;-64.282;2023-04-08T00:48:49;22.20;88.30
59973;DHT22;55298;-36.624;-64.282;2023-04-08T00:51:19;22.10;89.10
59973;DHT22;55298;-36.624;-64.282;2023-04-08T00:53:51;22.10;89.40
59973;DHT22;55298;-36.624;-64.282;2023-04-08T00:56:19;22.00;89.50
59973;DHT22;55298;-36.624;-64.282;2023-04-08T00:58:49;22.00;89.80
59973;DHT22;55298;-36.624;-64.282;2023-04-08T01:06:56;21.80;90.80
59973;DHT22;55298;-36.624;-64.282;2023-04-08T01:09:29;21.80;91.30
59973;DHT22;55298;-36.624;-64.282;2023-04-08T01:11:59;21.70;91.50
59973;DHT22;55298;-36.624;-64.282;2023-04-08T01:14:31;21.60;92.10
59973;DHT22;55298;-36.624;-64.282;2023-04-08T01:17:00;21.50;92.30
59973;DHT22;55298;-36.624;-64.282;2023-04-08T01:19:32;21.50;92.50
59973;DHT22;55298;-36.624;-64.282;2023-04-08T01:22:31;21.50;92.90
59973;DHT22;55298;-36.624;-64.282;2023-04-08T01:25:01;21.50;92.70
59973;DHT22;55298;-36.624;-64.282;2023-04-08T01:27:32;21.50;92.80
59973;DHT22;55298;-36.624;-64.282;2023-04-08T01:30:03;21.50;93.00
59973;DHT22;55298;-36.624;-64.282;2023-04-08T01:32:32;21.40;92.80
59973;DHT22;55298;-36.624;-64.282;2023-04-08T01:35:01;21.40;92.70
59973;DHT22;55298;-36.624;-64.282;2023-04-08T01:37:30;21.50;93.00
59973;DHT22;55298;-36.624;-64.282;2023-04-08T01:40:01;21.40;93.00
59973;DHT22;55298;-36.624;-64.282;2023-04-08T01:42:32;21.40;92.90
59973;DHT22;55298;-36.624;-64.282;2023-04-08T01:45:01;21.40;93.00
59973;DHT22;55298;-36.624;-64.282;2023-04-08T01:47:30;21.40;93.00
59973;DHT22;55298;-36.624;-64.282;2023-04-08T01:49:59;21.40;93.00
59973;DHT22;55298;-36.624;-64.282;2023-04-08T01:52:28;21.30;93.20
59973;DHT22;55298;-36.624;-64.282;2023-04-08T01:54:56;21.30;93.20
59973;DHT22;55298;-36.624;-64.282;2023-04-08T01:57:27;21.30;93.40
59973;DHT22;55298;-36.624;-64.282;2023-04-08T01:59:58;21.40;93.40
59973;DHT22;55298;-36.624;-64.282;2023-04-08T02:02:28;21.40;93.20
59973;DHT22;55298;-36.624;-64.282;2023-04-08T02:04:56;21.40;93.00
59973;DHT22;55298;-36.624;-64.282;2023-04-08T02:07:24;21.30;93.00
59973;DHT22;55298;-36.624;-64.282;2023-04-08T02:09:52;21.30;93.00
59973;DHT22;55298;-36.624;-64.282;2023-04-08T02:12:19;21.30;93.00
59973;DHT22;55298;-36.624;-64.282;2023-04-08T02:14:47;21.30;93.10
59973;DHT22;55298;-36.624;-64.282;2023-04-08T02:17:29;21.30;93.20
59973;DHT22;55298;-36.624;-64.282;2023-04-08T02:20:10;21.30;93.00
59973;DHT22;55298;-36.624;-64.282;2023-04-08T02:23:05;21.30;93.20
59973;DHT22;55298;-36.624;-64.282;2023-04-08T02:25:36;21.30;93.30
59973;DHT22;55298;-36.624;-64.282;2023-04-08T02:28:08;21.30;93.30
59973;DHT22;55298;-36.624;-64.282;2023-04-08T02:30:40;21.30;93.30
59973;DHT22;55298;-36.624;-64.282;2023-04-08T02:33:10;21.30;93.20
59973;DHT22;55298;-36.624;-64.282;2023-04-08T02:35:40;21.30;93.30
59973;DHT22;55298;-36.624;-64.282;2023-04-08T02:38:09;21.20;93.30
59973;DHT22;55298;-36.624;-64.282;2023-04-08T02:40:37;21.20;93.10
59973;DHT22;55298;-36.624;-64.282;2023-04-08T02:43:06;21.30;93.30
59973;DHT22;55298;-36.624;-64.282;2023-04-08T02:45:39;21.10;93.30
59973;DHT22;55298;-36.624;-64.282;2023-04-08T02:48:09;21.20;93.50
59973;DHT22;55298;-36.624;-64.282;2023-04-08T02:50:37;21.20;93.60
59973;DHT22;55298;-36.624;-64.282;2023-04-08T02:53:07;21.10;93.60
59973;DHT22;55298;-36.624;-64.282;2023-04-08T02:55:35;21.10;93.70
59973;DHT22;55298;-36.624;-64.282;2023-04-08T02:58:03;21.10;93.80
59973;DHT22;55298;-36.624;-64.282;2023-04-08T03:00:31;21.00;94.10
59973;DHT22;55298;-36.624;-64.282;2023-04-08T03:02:59;21.00;94.40
59973;DHT22;55298;-36.624;-64.282;2023-04-08T03:05:27;21.00;94.10
59973;DHT22;55298;-36.624;-64.282;2023-04-08T03:07:54;21.00;94.10
59973;DHT22;55298;-36.624;-64.282;2023-04-08T03:10:24;20.90;94.40
59973;DHT22;55298;-36.624;-64.282;2023-04-08T03:12:52;20.80;94.40
59973;DHT22;55298;-36.624;-64.282;2023-04-08T03:15:19;20.90;95.00
59973;DHT22;55298;-36.624;-64.282;2023-04-08T03:17:48;20.80;95.40
59973;DHT22;55298;-36.624;-64.282;2023-04-08T03:20:15;20.70;96.00
59973;DHT22;55298;-36.624;-64.282;2023-04-08T03:22:43;20.70;96.10
59973;DHT22;55298;-36.624;-64.282;2023-04-08T03:25:11;20.60;96.10
59973;DHT22;55298;-36.624;-64.282;2023-04-08T03:27:39;20.60;97.10
59973;DHT22;55298;-36.624;-64.282;2023-04-08T03:30:07;20.50;97.30
59973;DHT22;55298;-36.624;-64.282;2023-04-08T03:32:36;20.50;97.40
59973;DHT22;55298;-36.624;-64.282;2023-04-08T03:35:04;20.50;97.80
59973;DHT22;55298;-36.624;-64.282;2023-04-08T03:37:32;20.40;98.00
59973;DHT22;55298;-36.624;-64.282;2023-04-08T03:40:01;20.40;98.30
59973;DHT22;55298;-36.624;-64.282;2023-04-08T03:42:29;20.30;98.30
59973;DHT22;55298;-36.624;-64.282;2023-04-08T03:44:57;20.40;98.50
59973;DHT22;55298;-36.624;-64.282;2023-04-08T03:47:25;20.30;98.90
59973;DHT22;55298;-36.624;-64.282;2023-04-08T03:49:53;20.30;99.00
59973;DHT22;55298;-36.624;-64.282;2023-04-08T03:52:21;20.30;99.40
59973;DHT22;55298;-36.624;-64.282;2023-04-08T03:54:49;20.30;98.60
59973;DHT22;55298;-36.624;-64.282;2023-04-08T03:57:17;20.30;99.30
59973;DHT22;55298;-36.624;-64.282;2023-04-08T03:59:45;20.30;99.40
59973;DHT22;55298;-36.624;-64.282;2023-04-08T04:02:12;20.30;99.80
59973;DHT22;55298;-36.624;-64.282;2023-04-08T04:04:40;20.30;99.80
59973;DHT22;55298;-36.624;-64.282;2023-04-08T04:07:07;20.20;99.90
59973;DHT22;55298;-36.624;-64.282;2023-04-08T04:09:37;20.30;99.80
59973;DHT22;55298;-36.624;-64.282;2023-04-08T04:12:04;20.20;99.50
59973;DHT22;55298;-36.624;-64.282;2023-04-08T04:14:32;20.20;99.90
59973;DHT22;55298;-36.624;-64.282;2023-04-08T04:17:00;20.20;99.90
59973;DHT22;55298;-36.624;-64.282;2023-04-08T04:19:30;20.30;99.90
59973;DHT22;55298;-36.624;-64.282;2023-04-08T04:21:58;20.30;99.90
59973;DHT22;55298;-36.624;-64.282;2023-04-08T04:24:25;20.30;99.90
59973;DHT22;55298;-36.624;-64.282;2023-04-08T04:26:53;20.30;99.90
59973;DHT22;55298;-36.624;-64.282;2023-04-08T04:29:24;20.30;99.90
59973;DHT22;55298;-36.624;-64.282;2023-04-08T04:31:52;20.30;99.90
59973;DHT22;55298;-36.624;-64.282;2023-04-08T04:34:20;20.30;99.90
59973;DHT22;55298;-36.624;-64.282;2023-04-08T04:36:48;20.30;99.90
59973;DHT22;55298;-36.624;-64.282;2023-04-08T04:39:16;20.30;99.90
59973;DHT22;55298;-36.624;-64.282;2023-04-08T04:41:44;20.20;99.90
59973;DHT22;55298;-36.624;-64.282;2023-04-08T04:44:13;20.20;99.90
59973;DHT22;55298;-36.624;-64.282;2023-04-08T04:46:41;20.20;99.90
59973;DHT22;55298;-36.624;-64.282;2023-04-08T04:49:12;20.10;99.90
59973;DHT22;55298;-36.624;-64.282;2023-04-08T04:52:00;20.10;99.90
59973;DHT22;55298;-36.624;-64.282;2023-04-08T04:54:28;20.00;99.90
59973;DHT22;55298;-36.624;-64.282;2023-04-08T04:56:56;20.00;99.90
59973;DHT22;55298;-36.624;-64.282;2023-04-08T04:59:24;19.90;99.90
59973;DHT22;55298;-36.624;-64.282;2023-04-08T05:01:52;20.00;99.90
59973;DHT22;55298;-36.624;-64.282;2023-04-08T05:04:19;19.90;99.90
59973;DHT22;55298;-36.624;-64.282;2023-04-08T05:06:47;19.80;99.90
59973;DHT22;55298;-36.624;-64.282;2023-04-08T05:09:15;19.90;99.90
59973;DHT22;55298;-36.624;-64.282;2023-04-08T05:11:42;19.80;99.90
59973;DHT22;55298;-36.624;-64.282;2023-04-08T05:14:10;19.80;99.90
59973;DHT22;55298;-36.624;-64.282;2023-04-08T05:16:38;19.70;99.90
59973;DHT22;55298;-36.624;-64.282;2023-04-08T05:19:06;19.70;99.90
59973;DHT22;55298;-36.624;-64.282;2023-04-08T05:21:34;19.70;99.90
59973;DHT22;55298;-36.624;-64.282;2023-04-08T05:24:01;19.70;99.90
59973;DHT22;55298;-36.624;-64.282;2023-04-08T05:26:29;19.60;99.90
59973;DHT22;55298;-36.624;-64.282;2023-04-08T05:28:57;19.60;99.90
59973;DHT22;55298;-36.624;-64.282;2023-04-08T05:31:25;19.50;99.90
59973;DHT22;55298;-36.624;-64.282;2023-04-08T05:33:52;19.60;99.90
59973;DHT22;55298;-36.624;-64.282;2023-04-08T05:36:20;19.60;99.90
59973;DHT22;55298;-36.624;-64.282;2023-04-08T05:38:48;19.60;99.90
59973;DHT22;55298;-36.624;-64.282;2023-04-08T05:41:15;19.60;99.90
59973;DHT22;55298;-36.624;-64.282;2023-04-08T05:43:43;19.60;99.90
59973;DHT22;55298;-36.624;-64.282;2023-04-08T05:46:11;19.60;99.90
59973;DHT22;55298;-36.624;-64.282;2023-04-08T05:48:38;19.60;99.90
59973;DHT22;55298;-36.624;-64.282;2023-04-08T05:51:11;19.50;99.90
59973;DHT22;55298;-36.624;-64.282;2023-04-08T05:53:39;19.60;99.90
59973;DHT22;55298;-36.624;-64.282;2023-04-08T05:56:07;19.50;99.90
59973;DHT22;55298;-36.624;-64.282;2023-04-08T05:58:35;19.50;99.90
59973;DHT22;55298;-36.624;-64.282;2023-04-08T06:01:03;19.50;99.90
59973;DHT22;55298;-36.624;-64.282;2023-04-08T06:03:33;19.50;99.90
59973;DHT22;55298;-36.624;-64.282;2023-04-08T06:06:00;19.60;99.90
59973;DHT22;55298;-36.624;-64.282;2023-04-08T06:08:28;19.60;99.90
59973;DHT22;55298;-36.624;-64.282;2023-04-08T06:10:56;19.70;99.90
59973;DHT22;55298;-36.624;-64.282;2023-04-08T06:13:23;19.70;99.90
59973;DHT22;55298;-36.624;-64.282;2023-04-08T06:15:51;19.80;99.90
59973;DHT22;55298;-36.624;-64.282;2023-04-08T06:18:19;19.70;99.90
59973;DHT22;55298;-36.624;-64.282;2023-04-08T06:20:47;19.80;99.90
59973;DHT22;55298;-36.624;-64.282;2023-04-08T06:23:15;19.80;99.90
59973;DHT22;55298;-36.624;-64.282;2023-04-08T06:25:42;19.80;99.90
59973;DHT22;55298;-36.624;-64.282;2023-04-08T06:28:10;19.80;99.90
59973;DHT22;55298;-36.624;-64.282;2023-04-08T06:30:39;19.80;99.90
59973;DHT22;55298;-36.624;-64.282;2023-04-08T06:33:06;19.80;99.90
59973;DHT22;55298;-36.624;-64.282;2023-04-08T06:35:34;19.80;99.90
59973;DHT22;55298;-36.624;-64.282;2023-04-08T06:38:03;19.80;99.90
59973;DHT22;55298;-36.624;-64.282;2023-04-08T06:40:31;19.70;99.90
59973;DHT22;55298;-36.624;-64.282;2023-04-08T06:42:59;19.70;99.90
59973;DHT22;55298;-36.624;-64.282;2023-04-08T06:45:28;19.70;99.90
59973;DHT22;55298;-36.624;-64.282;2023-04-08T06:47:56;19.70;99.90
59973;DHT22;55298;-36.624;-64.282;2023-04-08T06:50:23;19.60;99.90
59973;DHT22;55298;-36.624;-64.282;2023-04-08T06:52:51;19.60;99.90
59973;DHT22;55298;-36.624;-64.282;2023-04-08T06:55:19;19.60;99.90
59973;DHT22;55298;-36.624;-64.282;2023-04-08T06:57:47;19.50;99.90
59973;DHT22;55298;-36.624;-64.282;2023-04-08T07:00:15;19.50;99.90
59973;DHT22;55298;-36.624;-64.282;2023-04-08T07:02:43;19.40;99.90
59973;DHT22;55298;-36.624;-64.282;2023-04-08T07:05:11;19.40;99.90
59973;DHT22;55298;-36.624;-64.282;2023-04-08T07:07:38;19.40;99.90
59973;DHT22;55298;-36.624;-64.282;2023-04-08T07:10:06;19.40;99.90
59973;DHT22;55298;-36.624;-64.282;2023-04-08T07:12:34;19.40;99.90
59973;DHT22;55298;-36.624;-64.282;2023-04-08T07:15:02;19.40;99.90
59973;DHT22;55298;-36.624;-64.282;2023-04-08T07:17:30;19.30;99.90
59973;DHT22;55298;-36.624;-64.282;2023-04-08T07:19:57;19.30;99.90
59973;DHT22;55298;-36.624;-64.282;2023-04-08T07:22:26;19.40;99.90
59973;DHT22;55298;-36.624;-64.282;2023-04-08T07:24:53;19.40;99.90
59973;DHT22;55298;-36.624;-64.282;2023-04-08T07:27:21;19.30;99.90
59973;DHT22;55298;-36.624;-64.282;2023-04-08T07:29:52;19.30;99.90
59973;DHT22;55298;-36.624;-64.282;2023-04-08T07:32:20;19.40;99.90
59973;DHT22;55298;-36.624;-64.282;2023-04-08T07:34:48;19.40;99.90
59973;DHT22;55298;-36.624;-64.282;2023-04-08T07:37:16;19.40;99.90
59973;DHT22;55298;-36.624;-64.282;2023-04-08T07:39:47;19.40;99.90
59973;DHT22;55298;-36.624;-64.282;2023-04-08T07:42:15;19.40;99.90
59973;DHT22;55298;-36.624;-64.282;2023-04-08T07:44:43;19.40;99.90
59973;DHT22;55298;-36.624;-64.282;2023-04-08T07:47:11;19.30;99.90
59973;DHT22;55298;-36.624;-64.282;2023-04-08T07:49:39;19.30;99.90
59973;DHT22;55298;-36.624;-64.282;2023-04-08T07:52:07;19.30;99.90
59973;DHT22;55298;-36.624;-64.282;2023-04-08T07:54:35;19.30;99.90
59973;DHT22;55298;-36.624;-64.282;2023-04-08T07:57:03;19.30;99.90
59973;DHT22;55298;-36.624;-64.282;2023-04-08T07:59:31;19.30;99.90
59973;DHT22;55298;-36.624;-64.282;2023-04-08T08:01:59;19.30;99.90
59973;DHT22;55298;-36.624;-64.282;2023-04-08T08:04:26;19.30;99.90
59973;DHT22;55298;-36.624;-64.282;2023-04-08T08:06:54;19.30;99.90
59973;DHT22;55298;-36.624;-64.282;2023-04-08T08:09:22;19.20;99.90
59973;DHT22;55298;-36.624;-64.282;2023-04-08T08:11:49;19.20;99.90
59973;DHT22;55298;-36.624;-64.282;2023-04-08T08:14:17;19.20;99.90
59973;DHT22;55298;-36.624;-64.282;2023-04-08T08:16:45;19.30;99.90
59973;DHT22;55298;-36.624;-64.282;2023-04-08T08:19:12;19.30;99.90
59973;DHT22;55298;-36.624;-64.282;2023-04-08T08:21:40;19.30;99.90
59973;DHT22;55298;-36.624;-64.282;2023-04-08T08:24:08;19.30;99.90
59973;DHT22;55298;-36.624;-64.282;2023-04-08T08:26:36;19.30;99.90
59973;DHT22;55298;-36.624;-64.282;2023-04-08T08:29:04;19.40;99.90
59973;DHT22;55298;-36.624;-64.282;2023-04-08T08:31:34;19.30;99.90
59973;DHT22;55298;-36.624;-64.282;2023-04-08T08:34:02;19.30;99.90
59973;DHT22;55298;-36.624;-64.282;2023-04-08T08:36:30;19.30;99.90
59973;DHT22;55298;-36.624;-64.282;2023-04-08T08:38:58;19.30;99.90
59973;DHT22;55298;-36.624;-64.282;2023-04-08T08:41:33;19.40;99.90
59973;DHT22;55298;-36.624;-64.282;2023-04-08T08:44:05;19.30;99.90
59973;DHT22;55298;-36.624;-64.282;2023-04-08T08:46:34;19.40;99.90
59973;DHT22;55298;-36.624;-64.282;2023-04-08T08:49:02;19.40;99.90
59973;DHT22;55298;-36.624;-64.282;2023-04-08T08:51:29;19.40;99.90
59973;DHT22;55298;-36.624;-64.282;2023-04-08T08:54:02;19.40;99.90
59973;DHT22;55298;-36.624;-64.282;2023-04-08T08:56:31;19.40;99.90
59973;DHT22;55298;-36.624;-64.282;2023-04-08T08:58:59;19.40;99.90
59973;DHT22;55298;-36.624;-64.282;2023-04-08T09:01:33;19.40;99.90
59973;DHT22;55298;-36.624;-64.282;2023-04-08T09:04:12;19.40;99.90
59973;DHT22;55298;-36.624;-64.282;2023-04-08T09:06:43;19.40;99.90
59973;DHT22;55298;-36.624;-64.282;2023-04-08T09:09:10;19.40;99.90
59973;DHT22;55298;-36.624;-64.282;2023-04-08T09:11:42;19.40;99.90
59973;DHT22;55298;-36.624;-64.282;2023-04-08T09:14:23;19.30;99.90
59973;DHT22;55298;-36.624;-64.282;2023-04-08T09:16:52;19.30;99.90
59973;DHT22;55298;-36.624;-64.282;2023-04-08T09:19:20;19.30;99.90
59973;DHT22;55298;-36.624;-64.282;2023-04-08T09:22:07;19.20;99.90
59973;DHT22;55298;-36.624;-64.282;2023-04-08T09:24:36;19.30;99.90
59973;DHT22;55298;-36.624;-64.282;2023-04-08T09:27:04;19.30;99.90
59973;DHT22;55298;-36.624;-64.282;2023-04-08T09:29:32;19.20;99.90
59973;DHT22;55298;-36.624;-64.282;2023-04-08T09:32:01;19.20;99.90
59973;DHT22;55298;-36.624;-64.282;2023-04-08T09:34:29;19.20;99.90
59973;DHT22;55298;-36.624;-64.282;2023-04-08T09:36:59;19.20;99.90
59973;DHT22;55298;-36.624;-64.282;2023-04-08T09:39:27;19.20;99.90
59973;DHT22;55298;-36.624;-64.282;2023-04-08T09:41:58;19.20;99.90
59973;DHT22;55298;-36.624;-64.282;2023-04-08T09:44:28;19.10;99.90
59973;DHT22;55298;-36.624;-64.282;2023-04-08T09:47:07;19.10;99.90
59973;DHT22;55298;-36.624;-64.282;2023-04-08T09:49:57;19.00;99.90
59973;DHT22;55298;-36.624;-64.282;2023-04-08T09:52:36;19.00;99.90
59973;DHT22;55298;-36.624;-64.282;2023-04-08T09:55:08;19.00;99.90
59973;DHT22;55298;-36.624;-64.282;2023-04-08T09:57:54;19.00;99.90
59973;DHT22;55298;-36.624;-64.282;2023-04-08T10:00:33;18.90;99.90
59973;DHT22;55298;-36.624;-64.282;2023-04-08T10:06:00;18.90;99.90
59973;DHT22;55298;-36.624;-64.282;2023-04-08T10:08:30;18.80;99.90
59973;DHT22;55298;-36.624;-64.282;2023-04-08T10:10:58;18.80;99.90
59973;DHT22;55298;-36.624;-64.282;2023-04-08T10:13:27;18.80;99.90
59973;DHT22;55298;-36.624;-64.282;2023-04-08T10:18:41;18.70;99.90
59973;DHT22;55298;-36.624;-64.282;2023-04-08T10:21:31;18.80;99.90
59973;DHT22;55298;-36.624;-64.282;2023-04-08T10:24:00;18.70;99.90
59973;DHT22;55298;-36.624;-64.282;2023-04-08T10:26:34;18.80;99.90
59973;DHT22;55298;-36.624;-64.282;2023-04-08T10:29:31;18.70;99.90
59973;DHT22;55298;-36.624;-64.282;2023-04-08T10:31:58;18.70;99.90
59973;DHT22;55298;-36.624;-64.282;2023-04-08T10:34:27;18.60;99.90
59973;DHT22;55298;-36.624;-64.282;2023-04-08T10:37:00;18.60;99.90
59973;DHT22;55298;-36.624;-64.282;2023-04-08T10:39:29;18.70;99.90
59973;DHT22;55298;-36.624;-64.282;2023-04-08T10:41:57;18.60;99.90
59973;DHT22;55298;-36.624;-64.282;2023-04-08T10:44:28;18.60;99.90
59973;DHT22;55298;-36.624;-64.282;2023-04-08T10:46:55;18.60;99.90
59973;DHT22;55298;-36.624;-64.282;2023-04-08T10:49:32;18.60;99.90
59973;DHT22;55298;-36.624;-64.282;2023-04-08T10:52:05;18.60;99.90
59973;DHT22;55298;-36.624;-64.282;2023-04-08T10:54:33;18.60;99.90
59973;DHT22;55298;-36.624;-64.282;2023-04-08T11:39:42;23.20;97.30
59973;DHT22;55298;-36.624;-64.282;2023-04-08T11:42:26;24.50;92.50
59973;DHT22;55298;-36.624;-64.282;2023-04-08T11:44:54;24.80;90.50
59973;DHT22;55298;-36.624;-64.282;2023-04-08T11:47:29;25.10;89.50
59973;DHT22;55298;-36.624;-64.282;2023-04-08T11:49:58;25.30;85.80
59973;DHT22;55298;-36.624;-64.282;2023-04-08T11:52:40;25.40;83.10
59973;DHT22;55298;-36.624;-64.282;2023-04-08T11:55:10;25.50;81.00
59973;DHT22;55298;-36.624;-64.282;2023-04-08T11:57:39;25.80;80.60
59973;DHT22;55298;-36.624;-64.282;2023-04-08T12:00:07;26.10;79.10
59973;DHT22;55298;-36.624;-64.282;2023-04-08T12:02:35;26.10;75.50
59973;DHT22;55298;-36.624;-64.282;2023-04-08T12:05:03;26.00;75.30
59973;DHT22;55298;-36.624;-64.282;2023-04-08T12:07:31;26.10;74.80
59973;DHT22;55298;-36.624;-64.282;2023-04-08T12:09:59;26.40;72.90
59973;DHT22;55298;-36.624;-64.282;2023-04-08T12:12:27;26.60;72.30
59973;DHT22;55298;-36.624;-64.282;2023-04-08T12:14:55;26.80;68.90
59973;DHT22;55298;-36.624;-64.282;2023-04-08T12:17:22;26.80;68.70
59973;DHT22;55298;-36.624;-64.282;2023-04-08T12:19:51;27.00;67.40
59973;DHT22;55298;-36.624;-64.282;2023-04-08T12:22:18;27.30;65.50
59973;DHT22;55298;-36.624;-64.282;2023-04-08T12:24:46;27.50;64.80
59973;DHT22;55298;-36.624;-64.282;2023-04-08T12:27:14;27.80;63.40
59973;DHT22;55298;-36.624;-64.282;2023-04-08T12:29:42;28.10;62.00
59973;DHT22;55298;-36.624;-64.282;2023-04-08T12:32:10;28.10;60.70
59973;DHT22;55298;-36.624;-64.282;2023-04-08T12:34:38;27.90;59.00
59973;DHT22;55298;-36.624;-64.282;2023-04-08T12:37:06;28.00;60.10
59973;DHT22;55298;-36.624;-64.282;2023-04-08T12:39:35;28.30;59.40
59973;DHT22;55298;-36.624;-64.282;2023-04-08T12:42:04;28.70;59.10
59973;DHT22;55298;-36.624;-64.282;2023-04-08T12:44:33;28.90;56.90
59973;DHT22;55298;-36.624;-64.282;2023-04-08T12:47:01;28.80;57.40
59973;DHT22;55298;-36.624;-64.282;2023-04-08T12:49:29;28.70;57.70
59973;DHT22;55298;-36.624;-64.282;2023-04-08T12:51:56;28.70;57.60
59973;DHT22;55298;-36.624;-64.282;2023-04-08T12:54:24;28.70;58.10
59973;DHT22;55298;-36.624;-64.282;2023-04-08T12:56:52;28.80;57.50
59973;DHT22;55298;-36.624;-64.282;2023-04-08T12:59:20;29.10;58.00
59973;DHT22;55298;-36.624;-64.282;2023-04-08T13:01:49;29.50;57.50
59973;DHT22;55298;-36.624;-64.282;2023-04-08T13:04:16;29.90;55.80
59973;DHT22;55298;-36.624;-64.282;2023-04-08T13:06:45;29.90;55.80
59973;DHT22;55298;-36.624;-64.282;2023-04-08T13:09:13;29.80;55.80
59973;DHT22;55298;-36.624;-64.282;2023-04-08T13:11:41;29.90;55.30
59973;DHT22;55298;-36.624;-64.282;2023-04-08T13:14:09;30.00;55.30
59973;DHT22;55298;-36.624;-64.282;2023-04-08T13:16:39;30.20;55.50
59973;DHT22;55298;-36.624;-64.282;2023-04-08T13:19:09;29.90;55.30
59973;DHT22;55298;-36.624;-64.282;2023-04-08T13:21:37;29.90;55.20
59973;DHT22;55298;-36.624;-64.282;2023-04-08T13:24:05;29.80;55.60
59973;DHT22;55298;-36.624;-64.282;2023-04-08T13:26:33;29.80;55.60
59973;DHT22;55298;-36.624;-64.282;2023-04-08T13:29:01;30.00;55.70
59973;DHT22;55298;-36.624;-64.282;2023-04-08T13:31:29;30.20;55.60
59973;DHT22;55298;-36.624;-64.282;2023-04-08T13:33:57;30.00;54.80
59973;DHT22;55298;-36.624;-64.282;2023-04-08T13:36:24;30.20;56.00
59973;DHT22;55298;-36.624;-64.282;2023-04-08T13:38:54;30.40;55.20
59973;DHT22;55298;-36.624;-64.282;2023-04-08T13:41:22;30.40;54.80
59973;DHT22;55298;-36.624;-64.282;2023-04-08T13:43:51;30.30;55.40
59973;DHT22;55298;-36.624;-64.282;2023-04-08T13:46:19;30.30;56.10
59973;DHT22;55298;-36.624;-64.282;2023-04-08T13:48:48;30.40;55.10
59973;DHT22;55298;-36.624;-64.282;2023-04-08T13:51:16;30.70;54.90
59973;DHT22;55298;-36.624;-64.282;2023-04-08T13:53:43;30.90;55.10
59973;DHT22;55298;-36.624;-64.282;2023-04-08T13:56:11;31.10;54.10
59973;DHT22;55298;-36.624;-64.282;2023-04-08T13:58:39;30.70;53.90
59973;DHT22;55298;-36.624;-64.282;2023-04-08T14:01:07;30.60;55.20
59973;DHT22;55298;-36.624;-64.282;2023-04-08T14:03:35;30.70;55.10
59973;DHT22;55298;-36.624;-64.282;2023-04-08T14:06:02;30.80;54.80
59973;DHT22;55298;-36.624;-64.282;2023-04-08T14:08:31;30.90;54.70
59973;DHT22;55298;-36.624;-64.282;2023-04-08T14:10:58;31.00;54.40
59973;DHT22;55298;-36.624;-64.282;2023-04-08T14:13:26;31.10;54.50
59973;DHT22;55298;-36.624;-64.282;2023-04-08T14:15:54;31.30;53.90
59973;DHT22;55298;-36.624;-64.282;2023-04-08T14:18:24;31.50;53.50
59973;DHT22;55298;-36.624;-64.282;2023-04-08T14:20:53;31.40;53.50
59973;DHT22;55298;-36.624;-64.282;2023-04-08T14:23:22;31.30;53.60
59973;DHT22;55298;-36.624;-64.282;2023-04-08T14:25:49;30.80;54.20
59973;DHT22;55298;-36.624;-64.282;2023-04-08T14:28:17;30.20;55.10
59973;DHT22;55298;-36.624;-64.282;2023-04-08T14:30:45;29.80;56.50
59973;DHT22;55298;-36.624;-64.282;2023-04-08T14:33:13;29.20;58.00
59973;DHT22;55298;-36.624;-64.282;2023-04-08T14:35:41;28.80;59.10
59973;DHT22;55298;-36.624;-64.282;2023-04-08T14:38:09;28.30;61.00
59973;DHT22;55298;-36.624;-64.282;2023-04-08T14:40:37;27.90;62.70
59973;DHT22;55298;-36.624;-64.282;2023-04-08T14:43:05;27.70;63.80
59973;DHT22;55298;-36.624;-64.282;2023-04-08T14:45:33;27.80;64.80
59973;DHT22;55298;-36.624;-64.282;2023-04-08T14:48:00;28.30;63.80
59973;DHT22;55298;-36.624;-64.282;2023-04-08T14:50:28;28.90;61.50
59973;DHT22;55298;-36.624;-64.282;2023-04-08T14:53:00;29.10;60.50
59973;DHT22;55298;-36.624;-64.282;2023-04-08T14:55:28;29.40;60.10
59973;DHT22;55298;-36.624;-64.282;2023-04-08T14:57:58;29.60;59.10
59973;DHT22;55298;-36.624;-64.282;2023-04-08T15:00:27;29.90;59.10
59973;DHT22;55298;-36.624;-64.282;2023-04-08T15:02:55;30.30;57.80
59973;DHT22;55298;-36.624;-64.282;2023-04-08T15:05:23;30.50;57.20
59973;DHT22;55298;-36.624;-64.282;2023-04-08T15:07:51;30.40;57.20
59973;DHT22;55298;-36.624;-64.282;2023-04-08T15:10:20;30.30;57.00
59973;DHT22;55298;-36.624;-64.282;2023-04-08T15:12:48;30.00;57.70
59973;DHT22;55298;-36.624;-64.282;2023-04-08T15:15:15;29.70;57.80
59973;DHT22;55298;-36.624;-64.282;2023-04-08T15:17:43;29.50;59.30
59973;DHT22;55298;-36.624;-64.282;2023-04-08T15:20:11;29.30;59.50
59973;DHT22;55298;-36.624;-64.282;2023-04-08T15:22:39;28.90;61.50
59973;DHT22;55298;-36.624;-64.282;2023-04-08T15:25:09;28.60;62.30
59973;DHT22;55298;-36.624;-64.282;2023-04-08T15:27:37;28.30;63.90
59973;DHT22;55298;-36.624;-64.282;2023-04-08T15:30:06;28.20;64.10
59973;DHT22;55298;-36.624;-64.282;2023-04-08T15:32:34;28.20;64.60
59973;DHT22;55298;-36.624;-64.282;2023-04-08T15:35:03;28.30;65.00
59973;DHT22;55298;-36.624;-64.282;2023-04-08T15:37:30;28.50;64.60
59973;DHT22;55298;-36.624;-64.282;2023-04-08T15:39:59;28.70;64.80
59973;DHT22;55298;-36.624;-64.282;2023-04-08T15:42:27;28.80;64.10
59973;DHT22;55298;-36.624;-64.282;2023-04-08T15:44:55;29.10;62.90
59973;DHT22;55298;-36.624;-64.282;2023-04-08T15:47:23;29.20;61.80
59973;DHT22;55298;-36.624;-64.282;2023-04-08T15:49:52;29.30;62.00
59973;DHT22;55298;-36.624;-64.282;2023-04-08T15:52:21;29.10;61.70
59973;DHT22;55298;-36.624;-64.282;2023-04-08T15:54:49;28.80;61.90